Terminal Aerodrome Forecast
Issued by NWS Wakefield, VA

Home | Current Version | Previous Version | Text Only | Print | Product List | Glossary On
Versions: 1 2 3 4 5 6 7 8 9 10 11 12 13 14 15 16 17 18 19 20 21 22 23 24 25 26 27
065
FTUS41 KAKQ 022342
TAFSBY
TAF
KSBY 022342Z 0300/0324 19005KT P6SM FEW040 BKN250
     FM030200 16010KT P6SM VCTS SCT020CB BKN050 BKN200
     FM030600 16010KT 3SM SHRA SCT007 OVC020
     FM030900 14004KT 2SM -RA BR BKN007 OVC020
     FM031400 VRB04KT 5SM BR OVC007
     FM032000 25005KT P6SM SCT007 OVC015=

USA.gov is the U.S. government's official web portal to all federal, state and local government web resources and services.